Time;durP1;ratioP1;P1;durP2;ratioP2;P2;SDS_P1;SDS_P2;PMS_P1;PMS_P2;Temp;Humidity;BMP_temperature;BMP_pressure;BME280_temperature;BME280_humidity;BME280_pressure;Samples;Min_cycle;Max_cycle;Signal;HPM_P1;HPM_P2
2022/10/07 00:01:10;;;;;;;7.90;3.50;;;10.20;99.90;;;;;;5066088;23;20237;-71
2022/10/07 00:03:10;;;;;;;7.57;3.30;;;10.10;99.90;;;;;;5067348;23;20283;-70
2022/10/07 00:05:11;;;;;;;7.37;4.43;;;10.10;99.90;;;;;;5066691;23;20269;-71
2022/10/07 00:07:13;;;;;;;9.80;2.83;;;10.10;99.90;;;;;;5067007;23;20484;-70
2022/10/07 00:09:14;;;;;;;7.60;3.07;;;10.00;99.90;;;;;;5066811;23;20196;-71
2022/10/07 00:11:26;;;;;;;9.63;3.23;;;10.00;99.90;;;;;;5040081;23;20173;-71
2022/10/07 00:13:27;;;;;;;8.77;3.10;;;9.90;99.90;;;;;;5067252;23;20169;-70
2022/10/07 00:15:27;;;;;;;5.90;2.80;;;9.90;99.90;;;;;;5067118;23;20504;-71
2022/10/07 00:17:28;;;;;;;7.20;2.70;;;9.90;99.90;;;;;;5067003;23;20198;-71
2022/10/07 00:19:29;;;;;;;7.47;2.93;;;9.90;99.90;;;;;;5066760;23;20161;-70
2022/10/07 00:21:32;;;;;;;9.20;3.47;;;9.80;99.90;;;;;;5066273;23;20503;-70
2022/10/07 00:23:33;;;;;;;6.20;3.27;;;9.80;99.90;;;;;;5066926;23;20623;-71
2022/10/07 00:25:38;;;;;;;5.40;3.10;;;9.70;99.90;;;;;;5066964;23;20551;-71
2022/10/07 00:27:38;;;;;;;4.90;2.90;;;9.70;99.90;;;;;;5066556;23;20165;-71
2022/10/07 00:29:39;;;;;;;6.00;3.37;;;9.70;99.90;;;;;;5066534;23;20500;-70
2022/10/07 00:31:40;;;;;;;6.77;3.30;;;9.60;99.90;;;;;;5066197;23;20165;-70
2022/10/07 00:33:41;;;;;;;6.40;3.20;;;9.60;99.90;;;;;;5066634;23;20586;-71
2022/10/07 00:35:42;;;;;;;7.07;3.27;;;9.60;99.90;;;;;;5066882;23;20170;-71
2022/10/07 00:37:42;;;;;;;10.30;2.87;;;9.50;99.90;;;;;;5066807;23;20158;-71
2022/10/07 00:39:44;;;;;;;5.77;3.10;;;9.50;99.90;;;;;;5066826;23;20162;-70
2022/10/07 00:41:50;;;;;;;7.27;3.10;;;9.40;99.90;;;;;;5040130;23;20640;-71
2022/10/07 00:43:51;;;;;;;7.87;3.20;;;9.40;99.90;;;;;;5040825;23;20190;-71
2022/10/07 00:45:56;;;;;;;5.80;2.80;;;9.30;99.90;;;;;;5066981;23;20511;-70
2022/10/07 00:47:57;;;;;;;6.57;2.97;;;9.30;99.90;;;;;;5041150;23;20288;-71
2022/10/07 00:50:04;;;;;;;8.80;2.97;;;9.20;99.90;;;;;;5067012;23;20166;-70
2022/10/07 00:52:05;;;;;;;4.77;2.97;;;9.20;99.90;;;;;;5065956;23;20222;-70
2022/10/07 00:54:10;;;;;;;6.83;2.97;;;9.20;99.90;;;;;;5066538;23;20707;-70
2022/10/07 00:56:12;;;;;;;8.80;2.83;;;9.20;99.90;;;;;;5067015;23;20158;-70
2022/10/07 00:58:13;;;;;;;4.07;2.67;;;9.20;99.90;;;;;;5067031;23;20250;-71
2022/10/07 01:00:14;;;;;;;5.60;2.90;;;9.20;99.90;;;;;;5065825;23;20241;-70
2022/10/07 01:02:15;;;;;;;8.37;3.00;;;9.20;99.90;;;;;;5066725;23;20280;-71
2022/10/07 01:04:16;;;;;;;8.27;3.37;;;9.10;99.90;;;;;;5066706;23;20222;-70
2022/10/07 01:06:16;;;;;;;7.67;3.10;;;9.10;99.90;;;;;;5065103;23;20174;-70
2022/10/07 01:08:19;;;;;;;9.33;3.23;;;9.10;99.90;;;;;;5040774;23;20228;-70
2022/10/07 01:10:20;;;;;;;3.90;2.60;;;9.10;99.90;;;;;;5065782;23;20165;-70
2022/10/07 01:12:30;;;;;;;8.77;3.30;;;9.00;99.90;;;;;;5040334;23;20521;-70
2022/10/07 01:14:41;;;;;;;5.17;2.67;;;9.00;99.90;;;;;;5066615;23;20174;-70
2022/10/07 01:17:07;;;;;;;6.03;3.33;;;9.00;99.90;;;;;;5066289;23;20160;-70
2022/10/07 01:19:17;;;;;;;5.57;2.80;;;9.00;99.90;;;;;;5066802;23;20172;-71
2022/10/07 01:21:40;;;;;;;5.37;2.93;;;8.90;99.90;;;;;;5065799;23;20502;-70
2022/10/07 01:23:58;;;;;;;3.33;2.33;;;8.90;99.90;;;;;;5025294;23;20200;-70
2022/10/07 01:26:29;;;;;;;4.83;2.67;;;8.80;99.90;;;;;;5040548;23;20163;-70
2022/10/07 01:28:45;;;;;;;4.83;2.83;;;8.80;99.90;;;;;;5066440;23;20197;-70
2022/10/07 01:30:51;;;;;;;6.07;3.10;;;8.80;99.90;;;;;;5065745;23;20304;-70
2022/10/07 01:33:03;;;;;;;6.90;3.00;;;8.80;99.90;;;;;;5066283;23;20176;-70
2022/10/07 01:35:10;;;;;;;4.40;2.70;;;8.80;99.90;;;;;;5040601;23;20186;-70
2022/10/07 01:37:14;;;;;;;4.27;2.67;;;8.80;99.90;;;;;;5066391;23;20202;-70
2022/10/07 01:39:16;;;;;;;4.87;3.00;;;8.90;99.90;;;;;;5066610;23;20162;-70
2022/10/07 01:41:19;;;;;;;8.00;3.13;;;8.90;99.90;;;;;;5065670;23;20714;-71
2022/10/07 01:43:22;;;;;;;7.13;3.50;;;8.90;99.90;;;;;;5066473;23;20175;-70
2022/10/07 01:45:27;;;;;;;6.03;3.23;;;8.90;99.90;;;;;;5066695;23;20211;-70
2022/10/07 01:47:28;;;;;;;7.70;3.10;;;9.00;99.90;;;;;;5040531;23;20166;-70
2022/10/07 01:49:28;;;;;;;4.90;3.07;;;9.00;99.90;;;;;;5066255;23;20221;-70
2022/10/07 01:51:32;;;;;;;10.00;2.90;;;9.10;99.90;;;;;;5065793;23;20171;-70
2022/10/07 01:53:36;;;;;;;4.43;2.60;;;9.30;99.90;;;;;;5066269;23;20165;-70
2022/10/07 01:55:50;;;;;;;4.57;2.73;;;9.30;99.90;;;;;;5066388;23;20157;-71
2022/10/07 01:57:50;;;;;;;5.07;2.80;;;9.40;99.90;;;;;;5065953;23;20184;-71
2022/10/07 02:00:07;;;;;;;5.37;3.40;;;9.40;99.90;;;;;;5066528;23;20154;-70
2022/10/07 02:02:16;;;;;;;4.37;2.90;;;9.40;99.90;;;;;;5066152;23;20486;-71
2022/10/07 02:04:57;;;;;;;3.37;2.50;;;9.50;99.90;;;;;;5066567;23;20231;-71
2022/10/07 02:07:16;;;;;;;3.90;2.57;;;9.60;99.90;;;;;;5041001;23;20222;-70
2022/10/07 02:09:40;;;;;;;4.80;2.40;;;9.70;99.90;;;;;;5066288;23;20193;-70
2022/10/07 02:11:45;;;;;;;4.63;2.27;;;9.60;99.90;;;;;;5060627;23;20165;-70
2022/10/07 02:13:54;;;;;;;3.03;2.33;;;9.60;99.90;;;;;;5040510;23;20190;-71
2022/10/07 02:16:10;;;;;;;6.27;2.90;;;9.60;99.90;;;;;;5066257;23;20168;-71
2022/10/07 02:18:15;;;;;;;5.13;2.20;;;9.60;99.90;;;;;;5066315;23;20170;-70
2022/10/07 02:20:18;;;;;;;3.07;2.53;;;9.60;99.90;;;;;;5065447;23;20172;-70
2022/10/07 02:22:21;;;;;;;3.07;2.13;;;9.70;99.90;;;;;;5040481;23;20206;-70
2022/10/07 02:24:27;;;;;;;5.50;2.47;;;9.60;99.90;;;;;;5067584;23;20652;-71
2022/10/07 02:26:29;;;;;;;3.53;1.97;;;9.50;99.90;;;;;;5067685;23;20567;-71
2022/10/07 02:28:32;;;;;;;4.63;2.50;;;9.50;99.90;;;;;;5066599;23;20190;-70
2022/10/07 02:30:35;;;;;;;5.63;2.50;;;9.40;99.90;;;;;;5066826;23;20680;-71
2022/10/07 02:32:40;;;;;;;5.73;2.50;;;9.50;99.90;;;;;;5067815;23;20184;-71
2022/10/07 02:34:42;;;;;;;4.33;2.23;;;9.50;99.90;;;;;;5067744;23;20264;-70
2022/10/07 02:36:49;;;;;;;4.57;2.10;;;9.50;99.90;;;;;;5067554;23;20205;-70
2022/10/07 02:38:50;;;;;;;4.93;2.17;;;9.60;99.90;;;;;;5041936;23;20184;-71
2022/10/07 02:41:09;;;;;;;3.63;2.40;;;9.60;99.90;;;;;;5065108;23;20170;-70
2022/10/07 02:43:27;;;;;;;4.17;2.23;;;9.70;99.90;;;;;;5067602;23;20185;-70
2022/10/07 02:45:35;;;;;;;6.80;2.70;;;9.80;99.90;;;;;;5068079;23;20158;-70
2022/10/07 02:47:44;;;;;;;3.47;2.03;;;9.80;99.90;;;;;;5067814;23;20241;-70
2022/10/07 02:49:49;;;;;;;3.17;2.20;;;9.80;99.90;;;;;;5041888;23;20227;-71
2022/10/07 02:52:04;;;;;;;3.37;2.00;;;9.90;99.90;;;;;;5066664;23;20159;-71
2022/10/07 02:54:04;;;;;;;3.30;2.10;;;10.00;99.90;;;;;;5067360;23;20186;-71
2022/10/07 02:56:06;;;;;;;5.10;2.30;;;10.00;99.90;;;;;;5067864;23;20616;-71
2022/10/07 02:58:09;;;;;;;3.60;2.27;;;10.00;99.90;;;;;;5067667;23;20241;-71
2022/10/07 03:00:11;;;;;;;4.60;2.40;;;10.10;99.90;;;;;;5067249;23;20189;-70
2022/10/07 03:02:18;;;;;;;3.50;2.10;;;10.10;99.90;;;;;;5067527;23;20248;-73
2022/10/07 03:04:20;;;;;;;5.13;2.20;;;10.10;99.90;;;;;;5067525;23;20257;-70
2022/10/07 03:06:22;;;;;;;4.70;2.17;;;10.20;99.90;;;;;;5067450;23;20163;-71
2022/10/07 03:08:23;;;;;;;7.37;2.23;;;10.30;99.90;;;;;;5067563;23;20194;-71
2022/10/07 03:10:25;;;;;;;7.13;2.13;;;10.30;99.90;;;;;;5066822;23;20614;-70
2022/10/07 03:12:27;;;;;;;4.67;2.00;;;10.30;99.90;;;;;;5067739;23;20260;-71
2022/10/07 03:14:28;;;;;;;2.80;2.27;;;10.30;99.90;;;;;;5067892;23;20173;-70
2022/10/07 03:16:29;;;;;;;4.20;2.50;;;10.30;99.90;;;;;;5067589;23;20485;-71
2022/10/07 03:18:30;;;;;;;5.87;2.10;;;10.30;99.90;;;;;;5067231;23;20168;-71
2022/10/07 03:20:31;;;;;;;4.90;2.20;;;10.40;99.90;;;;;;5066449;23;20422;-71
2022/10/07 03:22:32;;;;;;;4.47;2.50;;;10.50;99.90;;;;;;5041420;23;20171;-71
2022/10/07 03:24:32;;;;;;;6.37;2.37;;;10.50;99.90;;;;;;5041841;23;20179;-71
2022/10/07 03:26:34;;;;;;;4.50;2.67;;;10.60;99.90;;;;;;5065698;23;20163;-71
2022/10/07 03:28:36;;;;;;;3.37;2.27;;;10.50;99.90;;;;;;5067472;23;20210;-71
2022/10/07 03:30:36;;;;;;;5.60;2.33;;;10.40;99.90;;;;;;5041090;23;20171;-71
2022/10/07 03:32:38;;;;;;;4.50;2.13;;;10.50;99.90;;;;;;5066993;23;20574;-71
2022/10/07 03:34:39;;;;;;;5.33;2.10;;;10.50;99.90;;;;;;5066843;23;20643;-71
2022/10/07 03:36:40;;;;;;;6.60;3.93;;;10.50;99.90;;;;;;5067400;23;20163;-71
2022/10/07 03:38:40;;;;;;;3.40;2.33;;;10.60;99.90;;;;;;5067376;23;20158;-71
2022/10/07 03:40:43;;;;;;;4.67;2.60;;;10.60;99.90;;;;;;5066597;23;20188;-71
2022/10/07 03:42:44;;;;;;;7.37;2.70;;;10.60;99.90;;;;;;5067247;23;20189;-71
2022/10/07 03:44:45;;;;;;;7.87;2.33;;;10.70;99.90;;;;;;5067215;23;20182;-71
2022/10/07 03:46:50;;;;;;;4.30;2.47;;;10.70;99.90;;;;;;5067275;23;20159;-71
2022/10/07 03:48:51;;;;;;;3.53;2.40;;;10.60;99.90;;;;;;5067126;23;20190;-71
2022/10/07 03:50:53;;;;;;;4.40;2.50;;;10.60;99.90;;;;;;5040752;23;20190;-70
2022/10/07 03:52:55;;;;;;;3.97;2.63;;;10.60;99.90;;;;;;5067530;23;20162;-71
2022/10/07 03:54:55;;;;;;;3.70;2.63;;;10.70;99.90;;;;;;5067547;23;20703;-71
2022/10/07 03:56:56;;;;;;;4.57;2.60;;;10.70;99.90;;;;;;5067181;23;20190;-71
2022/10/07 03:58:56;;;;;;;2.93;2.33;;;10.80;99.90;;;;;;5067579;23;20222;-71
2022/10/07 04:01:12;;;;;;;4.90;2.50;;;10.80;99.90;;;;;;5066710;23;20238;-71
2022/10/07 04:03:14;;;;;;;6.83;2.77;;;10.80;99.90;;;;;;5041721;23;20171;-71
2022/10/07 04:05:19;;;;;;;4.27;2.80;;;10.80;99.90;;;;;;5067504;23;20182;-71
2022/10/07 04:07:23;;;;;;;5.03;3.10;;;10.80;99.90;;;;;;5067298;23;20166;-71
2022/10/07 04:09:23;;;;;;;4.53;2.73;;;10.90;99.90;;;;;;5067409;23;20217;-70
2022/10/07 04:11:24;;;;;;;4.73;2.63;;;11.00;99.90;;;;;;5066652;23;20159;-69
2022/10/07 04:13:25;;;;;;;5.90;2.90;;;11.00;99.90;;;;;;5067430;23;20214;-68
2022/10/07 04:15:26;;;;;;;3.37;2.80;;;11.10;99.90;;;;;;5067548;23;20155;-70
2022/10/07 04:17:27;;;;;;;3.77;2.90;;;11.00;99.90;;;;;;5041546;23;20163;-70
2022/10/07 04:19:28;;;;;;;3.93;2.57;;;11.10;99.90;;;;;;5067213;23;20194;-71
2022/10/07 04:21:29;;;;;;;8.33;3.70;;;11.10;99.90;;;;;;5066462;23;20612;-70
2022/10/07 04:23:30;;;;;;;5.80;2.73;;;11.10;99.90;;;;;;5066526;23;20213;-72
2022/10/07 04:25:33;;;;;;;3.00;2.70;;;11.10;99.90;;;;;;5068646;23;20158;-72
2022/10/07 04:27:34;;;;;;;6.00;3.07;;;11.20;99.90;;;;;;5067151;23;20159;-72
2022/10/07 04:29:35;;;;;;;7.03;3.13;;;11.20;99.90;;;;;;5041431;23;20688;-72
2022/10/07 04:31:36;;;;;;;6.67;3.27;;;11.10;99.90;;;;;;5066451;23;20180;-72
2022/10/07 04:33:40;;;;;;;5.00;3.00;;;11.10;99.90;;;;;;5041090;23;20198;-72
2022/10/07 04:35:41;;;;;;;6.73;3.87;;;11.20;99.90;;;;;;5042951;23;20348;-72
2022/10/07 04:37:42;;;;;;;6.10;3.87;;;11.30;99.90;;;;;;5043436;23;20159;-72
2022/10/07 04:39:43;;;;;;;6.10;4.00;;;11.30;99.90;;;;;;5043165;23;20227;-72
2022/10/07 04:41:43;;;;;;;16.27;6.57;;;11.40;99.90;;;;;;5042584;23;20224;-72
2022/10/07 04:43:44;;;;;;;12.27;5.87;;;11.40;99.90;;;;;;5043087;23;20266;-73
2022/10/07 04:45:53;;;;;;;11.80;6.03;;;11.50;99.90;;;;;;5043234;23;20159;-71
2022/10/07 04:47:53;;;;;;;8.07;4.60;;;11.60;99.90;;;;;;5041285;23;20660;-70
2022/10/07 04:49:54;;;;;;;8.57;4.40;;;11.70;99.90;;;;;;5042639;23;20165;-70
2022/10/07 04:51:55;;;;;;;7.93;4.17;;;11.70;99.90;;;;;;5042307;23;20167;-71
2022/10/07 04:53:56;;;;;;;9.23;3.83;;;11.70;99.90;;;;;;5043522;23;20656;-71
2022/10/07 04:55:57;;;;;;;5.67;3.20;;;11.70;99.90;;;;;;5043085;23;20162;-71
2022/10/07 04:57:58;;;;;;;10.07;5.20;;;11.60;99.90;;;;;;5043026;23;20159;-71
2022/10/07 04:59:58;;;;;;;5.90;3.73;;;11.50;99.90;;;;;;5043004;23;20170;-71
2022/10/07 05:01:59;;;;;;;5.97;3.90;;;11.60;99.90;;;;;;5042047;23;20194;-70
2022/10/07 05:03:59;;;;;;;11.37;5.00;;;11.70;99.90;;;;;;5043007;23;20258;-70
2022/10/07 05:06:02;;;;;;;10.50;6.13;;;11.70;99.90;;;;;;5042466;23;20170;-70
2022/10/07 05:08:03;;;;;;;12.57;6.97;;;11.80;99.90;;;;;;5042732;23;20186;-70
2022/10/07 05:10:04;;;;;;;9.00;5.13;;;11.80;99.90;;;;;;5042274;23;20829;-70
2022/10/07 05:12:05;;;;;;;8.30;4.53;;;11.80;99.90;;;;;;5041628;23;20159;-71
2022/10/07 05:14:06;;;;;;;6.17;4.80;;;11.80;99.90;;;;;;5042541;23;20519;-71
2022/10/07 05:16:08;;;;;;;6.87;4.80;;;11.80;99.90;;;;;;5041147;23;20195;-70
2022/10/07 05:18:09;;;;;;;9.03;4.80;;;11.70;99.90;;;;;;5042400;23;21162;-71
2022/10/07 05:20:11;;;;;;;11.43;6.03;;;11.80;99.90;;;;;;5042273;23;20226;-69
2022/10/07 05:22:11;;;;;;;12.60;6.97;;;11.80;99.90;;;;;;5042138;23;20245;-70
2022/10/07 05:24:12;;;;;;;13.60;7.53;;;11.90;99.90;;;;;;5042538;23;20242;-71
2022/10/07 05:26:14;;;;;;;11.80;6.37;;;12.00;99.90;;;;;;5042195;23;20260;-70
2022/10/07 05:28:15;;;;;;;11.50;6.23;;;12.00;99.90;;;;;;5042064;23;20195;-71
2022/10/07 05:30:16;;;;;;;11.23;6.63;;;12.00;99.90;;;;;;5041532;23;20234;-70
2022/10/07 05:32:17;;;;;;;11.97;7.27;;;12.10;99.90;;;;;;5042815;23;20249;-70
2022/10/07 05:34:19;;;;;;;13.97;7.80;;;12.20;99.90;;;;;;5065909;23;20174;-70
2022/10/07 05:36:19;;;;;;;11.63;8.10;;;12.10;99.90;;;;;;5066523;23;20178;-70
2022/10/07 05:38:20;;;;;;;20.00;9.33;;;12.20;99.90;;;;;;5040544;23;20167;-70
2022/10/07 05:40:20;;;;;;;19.73;8.57;;;12.20;99.90;;;;;;5065660;23;20193;-72
2022/10/07 05:42:21;;;;;;;15.77;8.80;;;12.20;99.90;;;;;;5066346;23;20209;-70
2022/10/07 05:44:22;;;;;;;13.87;8.87;;;12.20;99.90;;;;;;5066205;23;20205;-71
2022/10/07 05:46:23;;;;;;;15.63;8.93;;;12.20;99.90;;;;;;5066585;23;20484;-71
2022/10/07 05:48:23;;;;;;;14.17;8.27;;;12.30;99.90;;;;;;5040414;23;20194;-71
2022/10/07 05:50:24;;;;;;;13.70;8.33;;;12.30;99.90;;;;;;5065569;23;20158;-70
2022/10/07 05:52:24;;;;;;;16.03;8.87;;;12.30;99.90;;;;;;5066264;23;20158;-70
2022/10/07 05:54:25;;;;;;;14.67;7.60;;;12.40;99.90;;;;;;5065947;23;20260;-70
2022/10/07 05:56:25;;;;;;;14.20;7.77;;;12.40;99.90;;;;;;5066076;23;20158;-70
2022/10/07 05:58:26;;;;;;;16.07;8.67;;;12.50;99.90;;;;;;5066978;23;20201;-70
2022/10/07 06:00:27;;;;;;;18.10;8.37;;;12.50;99.90;;;;;;5066963;23;20173;-70
2022/10/07 06:02:28;;;;;;;13.27;7.93;;;12.40;99.90;;;;;;5067806;23;20539;-71
2022/10/07 06:04:29;;;;;;;13.47;8.87;;;12.30;99.90;;;;;;5067900;23;20202;-72
2022/10/07 06:06:29;;;;;;;17.20;8.87;;;12.40;99.90;;;;;;5067847;23;20177;-71
2022/10/07 06:08:30;;;;;;;17.33;8.30;;;12.40;99.90;;;;;;5068007;23;20196;-71
2022/10/07 06:13:07;;;;;;;15.43;9.50;;;12.10;99.90;;;;;;5068015;23;20177;-71
2022/10/07 06:15:08;;;;;;;18.50;9.00;;;12.20;99.90;;;;;;5068203;23;20177;-72
2022/10/07 06:17:09;;;;;;;17.43;9.77;;;12.20;99.90;;;;;;5068027;23;20238;-71
2022/10/07 06:19:21;;;;;;;17.37;8.37;;;12.20;99.90;;;;;;5067759;23;20151;-71
2022/10/07 06:21:26;;;;;;;14.97;8.67;;;12.30;99.90;;;;;;5067040;23;20162;-71
2022/10/07 06:23:27;;;;;;;13.60;8.27;;;12.40;99.90;;;;;;5067709;23;20158;-72
2022/10/07 06:25:28;;;;;;;14.67;8.57;;;12.50;99.90;;;;;;5068021;23;20169;-72
2022/10/07 06:27:29;;;;;;;17.90;8.33;;;12.60;99.90;;;;;;5067446;23;20245;-72
2022/10/07 06:29:29;;;;;;;18.53;9.63;;;12.50;99.90;;;;;;5067613;23;20190;-72
2022/10/07 06:31:30;;;;;;;15.83;8.87;;;12.40;99.90;;;;;;5066798;23;20214;-72
2022/10/07 06:33:30;;;;;;;14.10;8.40;;;12.50;99.90;;;;;;5067113;23;20874;-71
2022/10/07 06:35:31;;;;;;;18.37;9.13;;;12.50;99.90;;;;;;5067580;23;20154;-72
2022/10/07 06:37:32;;;;;;;15.47;8.57;;;12.50;99.90;;;;;;5067692;23;20154;-71
2022/10/07 06:39:32;;;;;;;18.40;10.23;;;12.60;99.90;;;;;;5067645;23;20242;-72
2022/10/07 06:41:33;;;;;;;14.67;9.37;;;12.40;99.90;;;;;;5066906;23;20166;-71
2022/10/07 06:43:34;;;;;;;18.80;9.83;;;12.40;99.90;;;;;;5067656;23;20241;-72
2022/10/07 06:45:34;;;;;;;17.93;8.57;;;12.50;99.90;;;;;;5068088;23;20166;-72
2022/10/07 06:47:35;;;;;;;17.43;9.63;;;12.50;99.90;;;;;;5067344;23;20209;-71
2022/10/07 06:49:35;;;;;;;18.33;9.43;;;12.40;99.90;;;;;;5067244;23;20192;-71
2022/10/07 06:51:36;;;;;;;17.83;9.60;;;12.40;99.90;;;;;;5066905;23;20162;-71
2022/10/07 06:53:36;;;;;;;25.03;9.73;;;12.40;99.90;;;;;;5041540;23;20159;-71
2022/10/07 06:55:37;;;;;;;17.10;11.30;;;12.30;99.90;;;;;;5067177;23;20216;-72
2022/10/07 06:57:38;;;;;;;20.70;9.53;;;12.50;99.90;;;;;;5067449;23;20186;-72
2022/10/07 06:59:38;;;;;;;15.93;9.07;;;12.50;99.90;;;;;;5067526;23;20159;-72
2022/10/07 07:01:39;;;;;;;17.83;9.80;;;12.40;99.90;;;;;;5066900;23;20237;-71
2022/10/07 07:03:39;;;;;;;17.50;9.93;;;12.30;99.90;;;;;;5067371;23;20241;-72
2022/10/07 07:05:41;;;;;;;19.53;9.93;;;12.50;99.90;;;;;;5067546;23;20484;-71
2022/10/07 07:07:42;;;;;;;17.07;9.60;;;12.60;99.90;;;;;;5067334;23;20205;-72
2022/10/07 07:09:42;;;;;;;17.83;9.20;;;12.50;99.90;;;;;;5067332;23;20230;-72
2022/10/07 07:11:44;;;;;;;15.97;9.03;;;12.50;99.90;;;;;;5066529;23;20197;-71
2022/10/07 07:13:44;;;;;;;14.20;8.77;;;12.60;99.90;;;;;;5067192;23;20178;-71
2022/10/07 07:15:58;;;;;;;15.27;9.07;;;12.60;99.90;;;;;;5067263;23;20169;-71
2022/10/07 07:17:59;;;;;;;22.57;11.00;;;12.60;99.90;;;;;;5067129;23;20877;-72
2022/10/07 07:20:00;;;;;;;18.10;10.33;;;12.60;99.90;;;;;;5041377;23;20163;-71
2022/10/07 07:22:01;;;;;;;17.73;9.53;;;12.50;99.90;;;;;;5066215;23;20508;-72
2022/10/07 07:24:02;;;;;;;16.60;9.23;;;12.60;99.90;;;;;;5067209;23;20182;-71
2022/10/07 07:26:02;;;;;;;13.73;9.13;;;12.60;99.90;;;;;;5041407;23;20173;-72
2022/10/07 07:28:04;;;;;;;18.27;9.13;;;12.50;99.90;;;;;;5066702;23;20212;-72
2022/10/07 07:30:05;;;;;;;20.03;10.17;;;12.30;99.90;;;;;;5067148;23;20154;-72
2022/10/07 07:32:07;;;;;;;18.43;9.20;;;12.50;99.90;;;;;;5040536;23;20894;-68
2022/10/07 07:34:12;;;;;;;17.50;9.17;;;12.50;99.90;;;;;;5066791;23;20186;-73
2022/10/07 07:36:15;;;;;;;14.27;8.93;;;12.70;99.90;;;;;;5066879;23;20155;-69
2022/10/07 07:38:15;;;;;;;17.03;9.13;;;12.90;99.90;;;;;;5067192;23;20245;-71
2022/10/07 07:40:17;;;;;;;15.37;8.77;;;13.00;99.90;;;;;;5066457;23;20627;-70
2022/10/07 07:42:18;;;;;;;17.63;9.47;;;12.90;99.90;;;;;;5065319;23;20162;-71
2022/10/07 07:44:19;;;;;;;16.37;9.17;;;12.90;99.90;;;;;;5065221;23;20182;-71
2022/10/07 07:46:21;;;;;;;15.37;8.30;;;13.00;99.90;;;;;;5039433;23;20198;-71
2022/10/07 07:48:22;;;;;;;16.60;9.03;;;13.00;99.90;;;;;;5064992;23;20198;-71
2022/10/07 07:50:25;;;;;;;16.00;9.13;;;12.90;99.90;;;;;;5038648;23;20194;-71
2022/10/07 07:52:26;;;;;;;12.57;8.43;;;12.70;99.90;;;;;;5039394;23;20246;-71
2022/10/07 07:54:27;;;;;;;15.17;8.57;;;12.80;99.90;;;;;;5065454;23;20178;-71
2022/10/07 07:56:31;;;;;;;15.50;8.40;;;12.80;99.90;;;;;;5065535;23;20295;-71
2022/10/07 07:58:32;;;;;;;15.40;8.30;;;13.10;99.90;;;;;;5066795;23;20237;-71
2022/10/07 08:00:34;;;;;;;16.07;9.20;;;13.00;99.90;;;;;;5066280;23;20189;-71
2022/10/07 08:02:34;;;;;;;13.70;8.20;;;13.00;99.90;;;;;;5066958;23;20157;-71
2022/10/07 08:04:35;;;;;;;15.17;8.33;;;13.10;99.90;;;;;;5066685;23;20182;-71
2022/10/07 08:06:36;;;;;;;16.00;8.50;;;13.30;99.90;;;;;;5041222;23;20152;-72
2022/10/07 08:08:37;;;;;;;12.97;8.23;;;13.10;99.90;;;;;;5066870;23;20229;-71
2022/10/07 08:10:39;;;;;;;15.40;8.50;;;12.90;99.90;;;;;;5066274;23;20163;-72
2022/10/07 08:12:39;;;;;;;13.87;7.53;;;13.10;99.90;;;;;;5066958;23;20181;-72
2022/10/07 08:14:42;;;;;;;13.33;7.47;;;13.40;99.90;;;;;;5067116;23;20178;-71
2022/10/07 08:16:42;;;;;;;11.13;7.20;;;13.70;99.90;;;;;;5067144;23;20159;-71
2022/10/07 08:18:46;;;;;;;11.67;7.00;;;13.70;99.90;;;;;;5066770;23;20177;-71
2022/10/07 08:21:01;;;;;;;11.27;8.43;;;13.80;99.90;;;;;;5065686;23;20166;-71
2022/10/07 08:23:05;;;;;;;11.70;6.93;;;13.60;99.90;;;;;;5040629;23;20250;-71
2022/10/07 08:25:06;;;;;;;12.77;7.50;;;13.70;99.90;;;;;;5067137;23;20580;-71
2022/10/07 08:27:07;;;;;;;12.17;8.07;;;13.70;99.90;;;;;;5066535;23;20158;-71
2022/10/07 08:29:07;;;;;;;13.00;7.20;;;13.60;99.90;;;;;;5066760;23;20194;-71
2022/10/07 08:31:13;;;;;;;12.10;6.77;;;13.50;99.90;;;;;;5065591;23;20154;-71
2022/10/07 08:33:13;;;;;;;11.47;7.00;;;13.60;99.90;;;;;;5066311;23;20220;-70
2022/10/07 08:35:14;;;;;;;9.90;6.33;;;13.90;99.90;;;;;;5066610;23;20214;-71
2022/10/07 08:37:15;;;;;;;11.67;6.93;;;14.00;99.90;;;;;;5066680;23;20169;-71
2022/10/07 08:39:15;;;;;;;11.70;6.43;;;14.10;99.90;;;;;;5066722;23;20173;-71
2022/10/07 08:41:23;;;;;;;9.87;6.97;;;13.90;99.90;;;;;;5066044;23;20162;-70
2022/10/07 08:43:23;;;;;;;9.70;6.07;;;14.40;99.90;;;;;;5066539;23;20579;-70
2022/10/07 08:45:30;;;;;;;9.60;6.80;;;14.60;99.20;;;;;;5066472;23;20166;-70
2022/10/07 08:47:37;;;;;;;8.83;6.43;;;14.60;98.80;;;;;;5066444;23;20190;-70
2022/10/07 08:50:08;;;;;;;13.03;6.37;;;14.60;99.40;;;;;;5066507;23;20285;-70
2022/10/07 08:52:33;;;;;;;8.90;5.87;;;14.60;99.70;;;;;;5040472;23;20576;-70
2022/10/07 08:54:33;;;;;;;12.17;5.83;;;14.90;99.30;;;;;;5009923;23;20190;-70
2022/10/07 08:56:34;;;;;;;10.83;5.33;;;15.20;97.10;;;;;;5066630;23;20201;-70
2022/10/07 08:58:38;;;;;;;7.97;5.30;;;15.00;97.80;;;;;;5066414;23;20237;-70
2022/10/07 09:00:48;;;;;;;8.83;6.00;;;15.10;96.90;;;;;;5065794;23;20678;-70
2022/10/07 09:03:17;;;;;;;7.57;5.33;;;15.20;96.70;;;;;;5066640;23;20523;-70
2022/10/07 09:05:25;;;;;;;10.47;5.90;;;15.00;98.20;;;;;;5040597;23;20187;-70
2022/10/07 09:07:46;;;;;;;8.50;6.10;;;15.00;98.40;;;;;;5040434;23;20210;-70
2022/10/07 09:09:57;;;;;;;8.73;5.90;;;15.20;97.30;;;;;;5041145;23;20190;-70
2022/10/07 09:12:01;;;;;;;9.03;5.23;;;15.80;95.30;;;;;;5039948;23;20159;-69
2022/10/07 09:14:30;;;;;;;9.43;5.73;;;15.80;95.30;;;;;;5040498;23;20646;-69
2022/10/07 09:16:42;;;;;;;7.93;5.33;;;15.70;94.40;;;;;;5040602;23;20647;-69
2022/10/07 09:19:01;;;;;;;9.20;5.60;;;15.80;94.70;;;;;;5040555;23;20170;-69
2022/10/07 09:21:10;;;;;;;9.17;5.30;;;15.60;95.20;;;;;;5065347;23;20665;-69
2022/10/07 09:23:15;;;;;;;8.87;5.80;;;15.80;95.80;;;;;;5016501;23;20215;-69
2022/10/07 09:25:27;;;;;;;7.70;6.17;;;15.50;95.40;;;;;;5066163;23;20560;-69
2022/10/07 09:27:28;;;;;;;9.87;5.53;;;15.70;95.90;;;;;;5066332;23;20172;-69
2022/10/07 09:29:29;;;;;;;10.47;5.20;;;16.10;96.50;;;;;;5066205;23;20535;-70
2022/10/07 09:31:31;;;;;;;7.23;5.50;;;16.40;93.10;;;;;;5065372;23;20619;-70
2022/10/07 09:33:41;;;;;;;7.33;5.07;;;16.40;93.80;;;;;;5039736;23;20284;-70
2022/10/07 09:35:52;;;;;;;7.57;5.17;;;16.80;92.80;;;;;;5040422;23;20158;-70
2022/10/07 09:38:02;;;;;;;7.87;5.40;;;17.10;91.20;;;;;;5040369;23;20159;-70
2022/10/07 09:41:13;;;;;;;7.40;5.10;;;17.20;92.00;;;;;;5040507;23;20234;-70
2022/10/07 09:43:12;;;;;;;6.50;4.77;;;17.80;85.60;;;;;;4967891;23;20169;-71
2022/10/07 09:45:32;;;;;;;6.40;5.20;;;18.00;84.10;;;;;;5023366;23;20210;-71
2022/10/07 09:47:39;;;;;;;9.33;6.03;;;18.20;82.40;;;;;;5040399;23;20242;-70
2022/10/07 09:49:43;;;;;;;7.93;5.03;;;18.10;82.60;;;;;;5040486;23;20940;-70
2022/10/07 09:52:17;;;;;;;8.93;5.20;;;17.70;84.10;;;;;;5041179;23;20190;-70
2022/10/07 09:54:24;;;;;;;7.77;7.07;;;17.70;86.80;;;;;;5016875;23;20198;-70
2022/10/07 09:56:43;;;;;;;10.83;5.03;;;18.10;81.40;;;;;;5064789;23;20158;-69
2022/10/07 09:58:44;;;;;;;6.17;5.03;;;17.90;83.30;;;;;;5064521;23;20236;-69
2022/10/07 10:00:49;;;;;;;6.33;4.83;;;18.30;82.80;;;;;;5064093;23;20173;-69
2022/10/07 10:03:03;;;;;;;6.37;4.90;;;18.50;80.00;;;;;;5040354;23;20555;-69
2022/10/07 10:05:04;;;;;;;7.50;5.10;;;19.00;76.60;;;;;;5040231;23;20178;-69
2022/10/07 10:07:19;;;;;;;6.03;4.90;;;18.70;77.50;;;;;;5016682;23;20164;-69
2022/10/07 10:09:23;;;;;;;7.23;5.07;;;19.10;78.40;;;;;;5040767;23;20191;-69
2022/10/07 10:11:29;;;;;;;7.60;5.40;;;19.20;74.50;;;;;;5016197;23;20202;-68
2022/10/07 10:13:39;;;;;;;5.60;4.83;;;19.10;75.10;;;;;;5041260;23;20162;-70
2022/10/07 10:15:41;;;;;;;7.00;5.67;;;19.40;73.40;;;;;;5041295;23;20306;-70
2022/10/07 10:17:42;;;;;;;6.90;5.60;;;19.00;75.40;;;;;;5042621;23;20159;-69
2022/10/07 10:19:43;;;;;;;6.80;5.47;;;18.80;78.60;;;;;;5042712;23;20688;-69
2022/10/07 10:21:52;;;;;;;5.97;4.80;;;19.40;73.90;;;;;;5041688;23;20809;-68
2022/10/07 10:24:04;;;;;;;8.13;4.97;;;19.00;75.10;;;;;;5040710;23;20265;-69
2022/10/07 10:26:26;;;;;;;5.90;4.80;;;19.00;77.20;;;;;;5040733;23;20183;-70
2022/10/07 10:28:37;;;;;;;6.53;5.17;;;19.30;76.40;;;;;;5042546;23;20187;-72
2022/10/07 10:30:49;;;;;;;5.43;4.60;;;20.00;70.80;;;;;;5042145;23;20158;-69
2022/10/07 10:33:26;;;;;;;6.83;4.80;;;19.50;73.20;;;;;;5016924;23;20183;-68
2022/10/07 10:35:30;;;;;;;5.63;5.10;;;19.90;72.00;;;;;;5042807;23;20162;-68
2022/10/07 10:37:58;;;;;;;5.90;4.97;;;20.60;68.30;;;;;;5040993;23;20155;-68
2022/10/07 10:40:26;;;;;;;5.73;4.77;;;20.10;69.10;;;;;;5016839;23;20194;-68
2022/10/07 10:42:38;;;;;;;5.43;4.50;;;20.50;69.10;;;;;;5040428;23;20640;-67
2022/10/07 10:44:42;;;;;;;5.20;4.63;;;20.20;69.10;;;;;;5043140;23;20179;-68
2022/10/07 10:47:25;;;;;;;5.03;4.53;;;20.10;69.50;;;;;;5043815;23;20163;-68
2022/10/07 10:50:08;;;;;;;5.43;4.60;;;20.90;66.20;;;;;;5043627;23;20199;-68
2022/10/07 10:52:52;;;;;;;7.20;4.93;;;20.70;67.20;;;;;;5012591;23;20197;-68